Time;durP1;ratioP1;P1;durP2;ratioP2;P2;SDS_P1;SDS_P2;PMS_P1;PMS_P2;Temp;Humidity;BMP_temperature;BMP_pressure;BME280_temperature;BME280_humidity;BME280_pressure;Samples;Min_cycle;Max_cycle;Signal;HPM_P1;HPM_P2
2021/01/15 14:50:26;;;;;;;27.20;13.63;;;-8.90;86.90;;;;;;5147077;27;20378;-92
2021/01/15 14:52:51;;;;;;;25.65;13.68;;;-6.90;88.30;;;;;;5101021;28;20027;-94
2021/01/15 14:55:17;;;;;;;25.15;12.93;;;-9.00;88.30;;;;;;5113590;28;20039;-95
2021/01/15 14:57:44;;;;;;;24.63;13.15;;;-8.90;89.90;;;;;;5095643;28;20530;-92
2021/01/15 15:00:11;;;;;;;25.50;12.90;;;-8.90;89.50;;;;;;5092769;28;20024;-93
2021/01/15 15:02:47;;;;;;;27.13;12.35;;;-8.90;90.50;;;;;;5085264;28;20119;-94
2021/01/15 15:05:17;;;;;;;23.95;12.70;;;-8.80;91.10;;;;;;5093370;28;20058;-93
2021/01/15 15:07:47;;;;;;;22.08;11.82;;;-8.80;91.10;;;;;;5102964;28;20388;-93
2021/01/15 15:10:14;;;;;;;22.25;12.43;;;-8.70;91.40;;;;;;5113573;28;20020;-95
2021/01/15 15:12:40;;;;;;;30.15;15.75;;;-8.70;91.50;;;;;;5113653;28;20023;-94
2021/01/15 15:15:08;;;;;;;31.75;15.05;;;-8.70;91.50;;;;;;5121042;28;20084;-94
2021/01/15 15:17:35;;;;;;;27.90;14.88;;;-8.70;91.20;;;;;;5093189;28;20380;-92
2021/01/15 15:20:07;;;;;;;25.30;13.90;;;-8.70;91.40;;;;;;5092961;28;20468;-94
2021/01/15 15:22:33;;;;;;;23.52;13.52;;;-8.70;91.50;;;;;;5092756;28;20031;-95
2021/01/15 15:25:03;;;;;;;28.88;14.60;;;-8.70;91.60;;;;;;5092362;28;20472;-93
2021/01/15 15:27:29;;;;;;;23.27;13.43;;;-8.60;91.40;;;;;;5092893;28;20474;-96
2021/01/15 15:29:56;;;;;;;24.23;13.18;;;-8.60;91.60;;;;;;5092952;28;20069;-93
2021/01/15 15:32:22;;;;;;;23.00;14.18;;;-8.60;91.70;;;;;;5092947;28;20028;-94
2021/01/15 15:34:47;;;;;;;23.08;12.55;;;-8.60;91.70;;;;;;5092797;28;20039;-93
2021/01/15 15:37:13;;;;;;;22.48;12.23;;;-8.50;91.80;;;;;;5092980;28;20384;-95
2021/01/15 15:39:39;;;;;;;29.13;15.10;;;-8.50;91.80;;;;;;5094073;28;20028;-93
2021/01/15 15:42:05;;;;;;;27.55;14.68;;;-8.50;91.80;;;;;;5094597;28;20028;-94
2021/01/15 15:44:31;;;;;;;28.17;15.07;;;-8.50;91.70;;;;;;5093019;28;20028;-95
2021/01/15 15:46:59;;;;;;;28.88;15.93;;;-8.50;91.80;;;;;;5092774;28;20077;-93
2021/01/15 15:49:25;;;;;;;26.85;14.38;;;-8.50;91.70;;;;;;5104148;28;20205;-94
2021/01/15 15:51:51;;;;;;;24.88;14.35;;;-8.50;91.70;;;;;;5106593;28;20119;-93
2021/01/15 15:54:17;;;;;;;26.40;14.30;;;-8.50;91.70;;;;;;5106909;28;20114;-95
2021/01/15 15:56:50;;;;;;;25.33;12.68;;;-8.50;91.50;;;;;;5112660;28;20115;-95
2021/01/15 15:59:16;;;;;;;25.88;14.13;;;-8.60;91.50;;;;;;5112656;28;20100;-95
2021/01/15 16:01:47;;;;;;;25.00;13.65;;;-8.60;91.30;;;;;;5088115;28;20034;-94
2021/01/15 16:04:14;;;;;;;25.15;14.15;;;-8.70;91.40;;;;;;5064303;28;20028;-94
2021/01/15 16:06:42;;;;;;;26.55;16.20;;;-8.70;91.40;;;;;;5066593;28;20031;-95
2021/01/15 16:09:08;;;;;;;32.17;16.63;;;-8.80;91.40;;;;;;5078744;28;20028;-95
2021/01/15 16:11:33;;;;;;;29.13;17.95;;;-8.80;91.40;;;;;;5097365;28;20031;-93
2021/01/15 16:13:59;;;;;;;30.92;16.35;;;-8.80;91.40;;;;;;5099042;28;20020;-95
2021/01/15 16:16:29;;;;;;;36.13;20.95;;;-8.90;91.50;;;;;;5095941;28;20128;-95
2021/01/15 16:18:55;;;;;;;29.67;16.58;;;-8.90;91.40;;;;;;5099125;28;20034;-93
2021/01/15 16:21:22;;;;;;;28.08;14.43;;;-9.00;91.30;;;;;;5086397;28;20035;-94
2021/01/15 16:23:49;;;;;;;28.70;15.38;;;-9.00;91.20;;;;;;5078937;28;20020;-95
2021/01/15 16:26:14;;;;;;;34.85;17.25;;;-9.00;91.10;;;;;;5082447;28;20020;-92
2021/01/15 16:28:40;;;;;;;29.25;15.48;;;-9.10;91.00;;;;;;5080039;28;20031;-92
2021/01/15 16:31:06;;;;;;;32.28;16.55;;;-9.10;91.10;;;;;;5078175;28;20086;-93
2021/01/15 16:33:34;;;;;;;34.03;17.73;;;-9.20;91.00;;;;;;5078351;28;20111;-93
2021/01/15 16:35:59;;;;;;;33.30;17.33;;;-9.20;90.90;;;;;;5078297;28;20035;-93
2021/01/15 16:38:26;;;;;;;31.58;17.50;;;-9.30;90.90;;;;;;5077961;28;20400;-95
2021/01/15 16:41:02;;;;;;;34.90;17.65;;;-9.30;90.90;;;;;;5077975;28;20020;-94
2021/01/15 16:43:28;;;;;;;35.10;18.15;;;-9.40;90.90;;;;;;5077919;28;20028;-93
2021/01/15 16:45:54;;;;;;;34.35;17.55;;;-9.40;90.70;;;;;;5077891;28;20026;-93
2021/01/15 20:18:24;;;;;;;32.75;16.20;;;-12.00;90.60;;;;;;5070448;28;20441;-90
2021/01/15 20:20:52;;;;;;;33.90;16.27;;;-10.40;91.20;;;;;;5070746;28;20385;-91
2021/01/15 20:23:19;;;;;;;27.25;12.98;;;-12.10;91.10;;;;;;5070313;28;20028;-91
2021/01/15 20:25:45;;;;;;;34.20;15.45;;;-12.10;91.30;;;;;;5069481;28;20108;-90
2021/01/15 20:28:12;;;;;;;33.22;15.82;;;-11.90;91.60;;;;;;5070630;28;20125;-92
2021/01/15 20:30:39;;;;;;;47.58;20.67;;;-11.90;91.80;;;;;;5067746;28;20072;-91
2021/01/15 20:33:06;;;;;;;45.85;20.15;;;-11.70;92.00;;;;;;5070442;28;20029;-91
2021/01/15 20:35:32;;;;;;;63.85;26.17;;;-11.60;92.20;;;;;;5070484;28;20033;-92
2021/01/15 20:37:58;;;;;;;45.92;19.38;;;-11.60;92.20;;;;;;5069061;28;20411;-90
2021/01/15 20:40:24;;;;;;;31.35;15.00;;;-11.50;92.20;;;;;;5069133;28;20029;-91
2021/01/15 20:42:51;;;;;;;29.08;13.70;;;-11.40;92.20;;;;;;5068753;28;20116;-91
2021/01/15 20:45:22;;;;;;;24.92;13.90;;;-11.50;92.20;;;;;;5070122;28;20035;-91
2021/01/15 20:47:48;;;;;;;25.70;12.88;;;-11.20;92.20;;;;;;5070372;28;20016;-91
2021/01/15 20:50:14;;;;;;;23.02;12.90;;;-11.30;92.10;;;;;;5069327;28;20390;-92
2021/01/15 20:52:41;;;;;;;22.70;12.13;;;-11.20;92.00;;;;;;5070409;28;20103;-91
2021/01/15 20:55:08;;;;;;;24.58;12.43;;;-11.20;91.90;;;;;;5070698;28;20023;-92
2021/01/15 20:57:34;;;;;;;26.65;13.75;;;-11.20;92.00;;;;;;5070036;28;20024;-91
2021/01/15 21:00:00;;;;;;;31.88;15.15;;;-11.10;92.10;;;;;;5067334;28;20032;-92
2021/01/15 21:02:26;;;;;;;30.75;13.68;;;-11.10;92.00;;;;;;5070345;28;20025;-92
2021/01/15 21:04:52;;;;;;;30.75;15.73;;;-11.10;91.80;;;;;;5068718;28;20527;-91
2021/01/15 21:07:18;;;;;;;37.03;18.05;;;-11.10;91.70;;;;;;5069942;28;20028;-90
2021/01/15 21:09:47;;;;;;;34.83;15.80;;;-11.20;91.60;;;;;;5070105;28;20031;-92
2021/01/15 21:12:14;;;;;;;29.75;15.48;;;-11.20;91.70;;;;;;5068588;28;20040;-92
2021/01/15 21:14:40;;;;;;;31.58;15.68;;;-11.20;91.40;;;;;;5068869;28;20033;-91
2021/01/15 21:17:07;;;;;;;31.42;15.23;;;-11.20;91.30;;;;;;5068469;28;20561;-91
2021/01/15 21:19:33;;;;;;;27.38;14.23;;;-11.30;91.20;;;;;;5068739;28;20104;-91
2021/01/15 21:21:59;;;;;;;25.75;14.05;;;-11.30;91.20;;;;;;5068686;28;20485;-92
2021/01/15 21:24:27;;;;;;;28.85;14.45;;;-11.40;91.20;;;;;;5068620;28;20020;-91
2021/01/15 21:26:54;;;;;;;28.08;14.20;;;-11.50;91.20;;;;;;5068612;28;20543;-92
2021/01/15 21:29:20;;;;;;;25.52;13.05;;;-11.50;91.20;;;;;;5059512;28;20028;-92
2021/01/15 21:31:47;;;;;;;23.83;13.48;;;-11.50;91.20;;;;;;5056521;28;20029;-91
2021/01/15 21:34:15;;;;;;;33.42;15.77;;;-11.60;91.30;;;;;;5055285;28;20032;-92
2021/01/15 21:36:42;;;;;;;34.65;17.40;;;-11.60;91.40;;;;;;5056815;28;20022;-91
2021/01/15 21:39:11;;;;;;;37.60;17.95;;;-11.60;91.30;;;;;;5056756;28;20096;-91
2021/01/15 21:41:37;;;;;;;40.35;19.40;;;-11.70;91.30;;;;;;5055975;28;20032;-92
2021/01/15 21:44:05;;;;;;;36.22;17.80;;;-11.70;91.20;;;;;;5056258;28;20013;-91
2021/01/15 21:46:42;;;;;;;52.05;19.98;;;-11.80;91.20;;;;;;5057685;28;20021;-91
2021/01/15 21:49:09;;;;;;;44.45;19.95;;;-11.70;91.20;;;;;;5055169;28;20107;-92
2021/01/15 21:51:49;;;;;;;46.67;19.38;;;-11.90;91.10;;;;;;5055080;28;20025;-92
2021/01/15 21:54:16;;;;;;;46.08;20.58;;;-11.90;91.10;;;;;;5055034;28;20052;-92
2021/01/15 21:56:43;;;;;;;47.78;20.75;;;-12.00;91.20;;;;;;5056632;28;20021;-92
2021/01/15 21:59:09;;;;;;;51.67;21.23;;;-12.00;91.20;;;;;;5054870;28;20056;-92
2021/01/15 22:01:36;;;;;;;46.00;21.38;;;-12.00;91.30;;;;;;5055336;28;20053;-93
2021/01/15 22:04:03;;;;;;;45.17;20.58;;;-12.00;91.30;;;;;;5055195;28;20052;-92
2021/01/15 22:06:28;;;;;;;44.25;19.27;;;-12.00;91.40;;;;;;5054677;28;20111;-92
2021/01/15 22:08:54;;;;;;;42.25;18.80;;;-12.00;91.30;;;;;;5054839;28;20426;-92
2021/01/15 22:11:20;;;;;;;42.67;19.88;;;-12.00;91.40;;;;;;5055692;28;20469;-92
2021/01/15 22:13:45;;;;;;;39.58;18.15;;;-12.00;91.40;;;;;;5054410;28;20028;-91
2021/01/15 22:16:11;;;;;;;36.15;17.50;;;-11.90;91.50;;;;;;5055330;28;20021;-93
2021/01/15 22:18:37;;;;;;;31.83;16.17;;;-11.90;91.60;;;;;;5054588;28;20469;-91
2021/01/15 22:21:05;;;;;;;33.95;16.42;;;-11.80;91.60;;;;;;5055798;28;20025;-91
2021/01/15 22:23:31;;;;;;;35.38;16.67;;;-11.80;91.60;;;;;;5054776;28;20017;-94
2021/01/15 22:25:57;;;;;;;32.58;15.30;;;-11.70;91.70;;;;;;5056045;28;20018;-93
2021/01/15 22:28:23;;;;;;;33.75;16.42;;;-11.60;91.70;;;;;;5054498;28;20025;-92
2021/01/15 22:30:50;;;;;;;31.60;15.23;;;-11.60;91.70;;;;;;5054421;28;20078;-92
2021/01/15 22:33:16;;;;;;;39.72;20.27;;;-11.60;91.70;;;;;;5055578;28;20033;-93
2021/01/15 22:35:44;;;;;;;35.40;18.92;;;-11.50;91.70;;;;;;5054719;28;20493;-92
2021/01/15 22:38:26;;;;;;;34.90;17.83;;;-11.40;91.70;;;;;;5054949;28;20095;-91
2021/01/15 22:41:04;;;;;;;35.55;18.00;;;-11.40;91.60;;;;;;5053651;28;20025;-92
2021/01/15 22:43:30;;;;;;;33.65;16.33;;;-11.30;91.70;;;;;;5054417;28;20048;-92
2021/01/15 22:45:56;;;;;;;34.55;16.17;;;-11.20;91.70;;;;;;5055275;28;20358;-93
2021/01/15 22:48:24;;;;;;;35.15;17.25;;;-11.20;91.80;;;;;;5054217;28;20032;-93
2021/01/15 22:50:51;;;;;;;30.15;16.27;;;-11.10;91.90;;;;;;5054465;28;20115;-93
2021/01/15 22:53:29;;;;;;;35.35;16.67;;;-11.10;91.80;;;;;;5055269;28;20104;-94
2021/01/15 22:55:58;;;;;;;32.00;15.50;;;-11.00;91.70;;;;;;5054913;28;20029;-93
2021/01/15 22:58:24;;;;;;;32.85;15.55;;;-10.90;91.70;;;;;;5053488;28;20021;-92
2021/01/15 23:00:51;;;;;;;34.17;15.85;;;-10.80;91.60;;;;;;5053300;28;20108;-93
2021/01/15 23:03:17;;;;;;;32.65;15.07;;;-10.80;91.50;;;;;;5053512;28;20359;-92
2021/01/15 23:05:44;;;;;;;32.22;15.80;;;-10.70;91.30;;;;;;5053438;28;20024;-93
2021/01/15 23:08:10;;;;;;;30.70;16.35;;;-10.70;91.20;;;;;;5053318;28;20029;-94
2021/01/15 23:10:41;;;;;;;28.98;16.42;;;-10.70;91.20;;;;;;5053337;28;20024;-93
2021/01/15 23:13:08;;;;;;;32.67;15.85;;;-10.60;91.10;;;;;;5053466;28;20112;-93
2021/01/15 23:15:35;;;;;;;36.67;16.45;;;-10.60;91.00;;;;;;5053293;28;20041;-93
2021/01/15 23:18:07;;;;;;;34.35;16.80;;;-10.60;90.90;;;;;;5050034;28;20127;-94
2021/01/15 23:20:33;;;;;;;34.63;17.80;;;-10.50;91.00;;;;;;5053067;28;20029;-91
2021/01/15 23:23:00;;;;;;;32.25;16.50;;;-10.50;90.90;;;;;;5053219;28;20021;-91
2021/01/15 23:25:29;;;;;;;32.35;16.23;;;-10.50;91.00;;;;;;5053164;28;20032;-94
2021/01/15 23:27:57;;;;;;;31.73;16.52;;;-10.50;91.20;;;;;;5052463;28;20032;-92
2021/01/15 23:30:29;;;;;;;30.08;16.33;;;-10.40;91.20;;;;;;5052983;28;20399;-93
2021/01/15 23:32:55;;;;;;;28.70;16.42;;;-10.40;91.10;;;;;;5052929;28;20048;-93
2021/01/15 23:35:23;;;;;;;27.67;14.10;;;-10.30;91.20;;;;;;5052921;28;20021;-92
2021/01/15 23:37:50;;;;;;;29.60;16.13;;;-10.30;91.30;;;;;;5052896;28;20029;-93
2021/01/15 23:40:20;;;;;;;34.08;16.33;;;-10.20;91.30;;;;;;5052854;28;20024;-93
2021/01/15 23:43:08;;;;;;;34.03;17.13;;;-10.20;91.30;;;;;;5052769;28;20033;-92
2021/01/15 23:45:45;;;;;;;37.00;16.73;;;-10.20;91.20;;;;;;5052718;28;20025;-93
2021/01/15 23:48:13;;;;;;;40.45;18.33;;;-10.10;91.20;;;;;;5052704;28;20477;-94
2021/01/15 23:50:56;;;;;;;32.88;15.63;;;-10.10;91.00;;;;;;5052631;28;20025;-92
2021/01/15 23:53:24;;;;;;;33.97;17.17;;;-10.10;91.00;;;;;;5053971;28;20410;-94
2021/01/15 23:55:53;;;;;;;35.08;17.00;;;-10.10;91.00;;;;;;5052659;28;20123;-93
2021/01/15 23:58:19;;;;;;;37.28;18.15;;;-10.10;91.10;;;;;;5052587;28;20029;-93
